WZZ31LG LHBP-EPWA
Flight info
| Callsign | WZZ31LG |
|---|---|
| Flight time | 0h 52m |
| Altitude | 35000 |
| Route | LITKU Y301 KALIF DCT SUPAK DCT ORTEB DCT KONZI DCT LOGDA |
| Aircraft | A21N/M-SDE2E3FGHIRWXY/LB1 |
Departure
| Time | 2026-05-04 19:56 |
|---|---|
| Airport | Budapest Liszt Ferenc International Airport (LHBP) |
Arrival
| Time | 2026-05-04 20:49 |
|---|---|
| Airport | Warsaw Chopin Airport (EPWA) |
| Time | Latitude | Longitude | Altitude | Speed | Heading |
|---|---|---|---|---|---|
| 2026-05-04 19:09 | 47.43516 | 19.26482 | 475 ft | 0 kts | 222° |
| 2026-05-04 19:40 | 47.43518 | 19.26484 | 475 ft | 0 kts | 222° |
| 2026-05-04 19:40 | 47.43518 | 19.26485 | 475 ft | 0 kts | 222° |
| 2026-05-04 19:41 | 47.43519 | 19.26486 | 475 ft | 0 kts | 222° |
| 2026-05-04 19:41 | 47.43520 | 19.26487 | 475 ft | 0 kts | 222° |
| 2026-05-04 19:41 | 47.43521 | 19.26488 | 475 ft | 0 kts | 222° |
| 2026-05-04 19:42 | 47.43524 | 19.26493 | 475 ft | 0 kts | 222° |
| 2026-05-04 19:44 | 47.43526 | 19.26495 | 475 ft | 1 kts | 221° |
| 2026-05-04 19:44 | 47.43535 | 19.26512 | 475 ft | 2 kts | 250° |
| 2026-05-04 19:44 | 47.43538 | 19.26534 | 475 ft | 2 kts | 273° |
| 2026-05-04 19:44 | 47.43534 | 19.26555 | 475 ft | 2 kts | 297° |
| 2026-05-04 19:45 | 47.43531 | 19.26564 | 475 ft | 1 kts | 307° |
| 2026-05-04 19:45 | 47.43527 | 19.26570 | 475 ft | 1 kts | 314° |
| 2026-05-04 19:45 | 47.43525 | 19.26573 | 475 ft | 0 kts | 313° |
| 2026-05-04 19:47 | 47.43533 | 19.26561 | 475 ft | 2 kts | 312° |
| 2026-05-04 19:48 | 47.43551 | 19.26531 | 475 ft | 5 kts | 312° |
| 2026-05-04 19:48 | 47.43584 | 19.26477 | 475 ft | 8 kts | 311° |
| 2026-05-04 19:48 | 47.43630 | 19.26402 | 475 ft | 11 kts | 311° |
| 2026-05-04 19:48 | 47.43695 | 19.26356 | 475 ft | 12 kts | 30° |
| 2026-05-04 19:49 | 47.43763 | 19.26431 | 476 ft | 12 kts | 28° |
| 2026-05-04 19:49 | 47.43825 | 19.26369 | 477 ft | 11 kts | 306° |
| 2026-05-04 19:49 | 47.43860 | 19.26300 | 478 ft | 0 kts | 308° |
| 2026-05-04 19:51 | 47.43870 | 19.26283 | 478 ft | 4 kts | 309° |
| 2026-05-04 19:51 | 47.43905 | 19.26222 | 478 ft | 11 kts | 311° |
| 2026-05-04 19:52 | 47.43977 | 19.26108 | 479 ft | 18 kts | 314° |
| 2026-05-04 19:52 | 47.44061 | 19.25973 | 482 ft | 17 kts | 312° |
| 2026-05-04 19:52 | 47.44148 | 19.25830 | 484 ft | 20 kts | 312° |
| 2026-05-04 19:52 | 47.44242 | 19.25675 | 486 ft | 20 kts | 311° |
| 2026-05-04 19:53 | 47.44351 | 19.25554 | 488 ft | 19 kts | 352° |
| 2026-05-04 19:53 | 47.44437 | 19.25575 | 492 ft | 0 kts | 28° |
| 2026-05-04 19:53 | 47.44437 | 19.25576 | 492 ft | 0 kts | 32° |
| 2026-05-04 19:53 | 47.44438 | 19.25577 | 492 ft | 0 kts | 32° |
| 2026-05-04 19:54 | 47.44453 | 19.25591 | 492 ft | 4 kts | 35° |
| 2026-05-04 19:54 | 47.44489 | 19.25649 | 494 ft | 10 kts | 60° |
| 2026-05-04 19:54 | 47.44508 | 19.25783 | 492 ft | 15 kts | 102° |
| 2026-05-04 19:54 | 47.44474 | 19.25862 | 490 ft | 0 kts | 130° |
| 2026-05-04 19:55 | 47.44404 | 19.25974 | 489 ft | 47 kts | 131° |
| 2026-05-04 19:55 | 47.44022 | 19.26594 | 477 ft | 115 kts | 132° |
| 2026-05-04 19:56 | 47.43345 | 19.27678 | 491 ft | 165 kts | 135° |
| 2026-05-04 19:56 | 47.42530 | 19.29041 | 825 ft | 183 kts | 135° |
| 2026-05-04 19:56 | 47.41728 | 19.30465 | 1454 ft | 188 kts | 130° |
| 2026-05-04 19:56 | 47.40994 | 19.32170 | 1920 ft | 208 kts | 121° |
| 2026-05-04 19:57 | 47.40324 | 19.34230 | 2334 ft | 231 kts | 120° |
| 2026-05-04 19:57 | 47.39582 | 19.36311 | 3065 ft | 236 kts | 121° |
| 2026-05-04 19:57 | 47.38811 | 19.38403 | 3841 ft | 235 kts | 120° |
| 2026-05-04 19:57 | 47.38367 | 19.40802 | 4183 ft | 257 kts | 90° |
| 2026-05-04 19:58 | 47.38911 | 19.43384 | 4554 ft | 279 kts | 56° |
| 2026-05-04 19:58 | 47.39755 | 19.44778 | 4972 ft | 283 kts | 45° |
| 2026-05-04 19:58 | 47.41207 | 19.46761 | 5724 ft | 284 kts | 44° |
| 2026-05-04 19:58 | 47.42648 | 19.48722 | 6430 ft | 286 kts | 44° |
| 2026-05-04 19:59 | 47.44100 | 19.50735 | 7134 ft | 288 kts | 44° |
| 2026-05-04 19:59 | 47.45553 | 19.52781 | 7831 ft | 291 kts | 44° |
| 2026-05-04 19:59 | 47.47018 | 19.54866 | 8523 ft | 294 kts | 44° |
| 2026-05-04 19:59 | 47.48067 | 19.56366 | 9011 ft | 295 kts | 44° |
| 2026-05-04 20:00 | 47.48800 | 19.57416 | 9348 ft | 297 kts | 44° |
| 2026-05-04 20:00 | 47.48920 | 19.57589 | 9403 ft | 297 kts | 44° |
| 2026-05-04 20:00 | 47.50016 | 19.59162 | 9903 ft | 299 kts | 44° |
| 2026-05-04 20:00 | 47.51512 | 19.61312 | 10498 ft | 305 kts | 44° |
| 2026-05-04 20:01 | 47.53075 | 19.63558 | 10804 ft | 322 kts | 44° |
| 2026-05-04 20:01 | 47.54703 | 19.65892 | 11129 ft | 336 kts | 43° |
| 2026-05-04 20:01 | 47.56674 | 19.67805 | 11660 ft | 342 kts | 20° |
| 2026-05-04 20:01 | 47.58997 | 19.68345 | 12329 ft | 343 kts | 355° |
| 2026-05-04 20:02 | 47.61254 | 19.67440 | 12963 ft | 343 kts | 331° |
| 2026-05-04 20:02 | 47.63118 | 19.65252 | 13575 ft | 343 kts | 313° |
| 2026-05-04 20:02 | 47.66145 | 19.60242 | 14703 ft | 348 kts | 311° |
| 2026-05-04 20:03 | 47.67761 | 19.57560 | 15312 ft | 350 kts | 311° |
| 2026-05-04 20:03 | 47.69403 | 19.54872 | 15916 ft | 351 kts | 312° |
| 2026-05-04 20:03 | 47.71040 | 19.52213 | 16490 ft | 353 kts | 312° |
| 2026-05-04 20:03 | 47.72710 | 19.49513 | 17047 ft | 355 kts | 313° |
| 2026-05-04 20:04 | 47.74378 | 19.46840 | 17571 ft | 357 kts | 315° |
| 2026-05-04 20:04 | 47.76385 | 19.44682 | 18023 ft | 361 kts | 336° |
| 2026-05-04 20:04 | 47.78785 | 19.43747 | 18492 ft | 363 kts | 356° |
| 2026-05-04 20:04 | 47.81283 | 19.44165 | 18950 ft | 367 kts | 18° |
| 2026-05-04 20:05 | 47.83545 | 19.45923 | 19375 ft | 371 kts | 38° |
| 2026-05-04 20:05 | 47.85483 | 19.48490 | 19847 ft | 374 kts | 43° |
| 2026-05-04 20:05 | 47.87359 | 19.51139 | 20269 ft | 377 kts | 43° |
| 2026-05-04 20:05 | 47.89265 | 19.53814 | 20686 ft | 380 kts | 43° |
| 2026-05-04 20:06 | 47.91214 | 19.56511 | 21108 ft | 382 kts | 41° |
| 2026-05-04 20:06 | 47.93357 | 19.58759 | 21493 ft | 383 kts | 25° |
| 2026-05-04 20:06 | 47.95874 | 19.59977 | 21902 ft | 383 kts | 8° |
| 2026-05-04 20:06 | 47.98527 | 19.60190 | 22322 ft | 384 kts | 359° |
| 2026-05-04 20:07 | 48.01214 | 19.60141 | 22709 ft | 386 kts | 358° |
| 2026-05-04 20:07 | 48.03893 | 19.60070 | 23079 ft | 389 kts | 358° |
| 2026-05-04 20:07 | 48.06583 | 19.60014 | 23456 ft | 391 kts | 359° |
| 2026-05-04 20:07 | 48.09287 | 19.60232 | 23819 ft | 394 kts | 5° |
| 2026-05-04 20:08 | 48.12015 | 19.60704 | 24195 ft | 395 kts | 6° |
| 2026-05-04 20:08 | 48.14754 | 19.61207 | 24563 ft | 397 kts | 6° |
| 2026-05-04 20:08 | 48.17479 | 19.61690 | 24918 ft | 399 kts | 6° |
| 2026-05-04 20:08 | 48.20250 | 19.62163 | 25270 ft | 401 kts | 5° |
| 2026-05-04 20:09 | 48.23024 | 19.62622 | 25612 ft | 402 kts | 5° |
| 2026-05-04 20:09 | 48.25800 | 19.63074 | 25946 ft | 404 kts | 5° |
| 2026-05-04 20:09 | 48.28572 | 19.63521 | 26263 ft | 406 kts | 5° |
| 2026-05-04 20:09 | 48.31389 | 19.63972 | 26562 ft | 408 kts | 5° |
| 2026-05-04 20:10 | 48.34179 | 19.64417 | 26852 ft | 410 kts | 5° |
| 2026-05-04 20:10 | 48.37041 | 19.64872 | 27155 ft | 411 kts | 5° |
| 2026-05-04 20:10 | 48.39868 | 19.65321 | 27453 ft | 413 kts | 5° |
| 2026-05-04 20:10 | 48.42701 | 19.65772 | 27748 ft | 414 kts | 5° |
| 2026-05-04 20:11 | 48.45593 | 19.66233 | 28045 ft | 416 kts | 5° |
| 2026-05-04 20:11 | 48.48435 | 19.66687 | 28328 ft | 417 kts | 5° |
| 2026-05-04 20:11 | 48.51344 | 19.67151 | 28613 ft | 419 kts | 5° |
| 2026-05-04 20:11 | 48.54208 | 19.67609 | 28888 ft | 420 kts | 5° |
| 2026-05-04 20:12 | 48.57130 | 19.68077 | 29164 ft | 422 kts | 5° |
| 2026-05-04 20:12 | 48.60052 | 19.68545 | 29434 ft | 423 kts | 5° |
| 2026-05-04 20:12 | 48.62941 | 19.69009 | 29695 ft | 424 kts | 5° |
| 2026-05-04 20:12 | 48.65898 | 19.69484 | 29956 ft | 426 kts | 5° |
| 2026-05-04 20:13 | 48.68831 | 19.69955 | 30208 ft | 427 kts | 5° |
| 2026-05-04 20:13 | 48.71761 | 19.70427 | 30448 ft | 429 kts | 5° |
| 2026-05-04 20:13 | 48.74722 | 19.70904 | 30680 ft | 431 kts | 5° |
| 2026-05-04 20:13 | 48.77697 | 19.71385 | 30908 ft | 432 kts | 5° |
| 2026-05-04 20:14 | 48.80705 | 19.71872 | 31114 ft | 434 kts | 5° |
| 2026-05-04 20:14 | 48.83729 | 19.72360 | 31323 ft | 436 kts | 5° |
| 2026-05-04 20:14 | 48.86729 | 19.72844 | 31548 ft | 438 kts | 5° |
| 2026-05-04 20:14 | 48.89732 | 19.73330 | 31836 ft | 437 kts | 5° |
| 2026-05-04 20:15 | 48.92757 | 19.73821 | 32147 ft | 436 kts | 5° |
| 2026-05-04 20:15 | 48.95738 | 19.74304 | 32443 ft | 436 kts | 5° |
| 2026-05-04 20:15 | 48.98741 | 19.74791 | 32728 ft | 435 kts | 5° |
| 2026-05-04 20:15 | 49.01749 | 19.75279 | 33008 ft | 435 kts | 5° |
| 2026-05-04 20:16 | 49.04747 | 19.75766 | 33297 ft | 434 kts | 5° |
| 2026-05-04 20:16 | 49.07723 | 19.76249 | 33547 ft | 434 kts | 5° |
| 2026-05-04 20:16 | 49.10719 | 19.76736 | 33758 ft | 435 kts | 5° |
| 2026-05-04 20:16 | 49.13747 | 19.77227 | 33963 ft | 436 kts | 5° |
| 2026-05-04 20:17 | 49.16732 | 19.77713 | 34168 ft | 437 kts | 5° |
| 2026-05-04 20:17 | 49.19774 | 19.78211 | 34374 ft | 438 kts | 5° |
| 2026-05-04 20:17 | 49.22764 | 19.78788 | 34570 ft | 439 kts | 7° |
| 2026-05-04 20:17 | 49.25763 | 19.79684 | 34761 ft | 441 kts | 11° |
| 2026-05-04 20:18 | 49.28748 | 19.80921 | 34946 ft | 443 kts | 15° |
| 2026-05-04 20:18 | 49.34506 | 19.84359 | 35010 ft | 449 kts | 24° |
| 2026-05-04 20:19 | 49.39970 | 19.89047 | 35002 ft | 451 kts | 30° |
| 2026-05-04 20:19 | 49.45278 | 19.94120 | 34996 ft | 451 kts | 30° |
| 2026-05-04 20:20 | 49.50568 | 19.99191 | 34994 ft | 451 kts | 30° |
| 2026-05-04 20:20 | 49.55914 | 20.04311 | 34993 ft | 451 kts | 30° |
| 2026-05-04 20:21 | 49.61225 | 20.09404 | 34993 ft | 451 kts | 30° |
| 2026-05-04 20:21 | 49.69186 | 20.17056 | 34993 ft | 451 kts | 30° |
| 2026-05-04 20:22 | 49.74509 | 20.22190 | 34993 ft | 451 kts | 30° |
| 2026-05-04 20:22 | 49.79794 | 20.27303 | 34980 ft | 453 kts | 30° |
| 2026-05-04 20:23 | 49.85130 | 20.32472 | 34961 ft | 453 kts | 30° |
| 2026-05-04 20:23 | 49.90463 | 20.37653 | 34952 ft | 453 kts | 30° |
| 2026-05-04 20:24 | 49.95779 | 20.42831 | 34949 ft | 453 kts | 30° |
| 2026-05-04 20:24 | 50.01119 | 20.48050 | 34949 ft | 453 kts | 30° |
| 2026-05-04 20:25 | 50.06598 | 20.52732 | 34948 ft | 451 kts | 21° |
| 2026-05-04 20:25 | 50.12489 | 20.56045 | 34948 ft | 448 kts | 12° |
| 2026-05-04 20:26 | 50.18570 | 20.57832 | 34947 ft | 446 kts | 3° |
| 2026-05-04 20:26 | 50.24715 | 20.58538 | 34949 ft | 445 kts | 1° |
| 2026-05-04 20:27 | 50.30868 | 20.59132 | 34947 ft | 446 kts | 1° |
| 2026-05-04 20:27 | 50.37065 | 20.59748 | 34947 ft | 447 kts | 1° |
| 2026-05-04 20:28 | 50.43256 | 20.60381 | 34947 ft | 447 kts | 1° |
| 2026-05-04 20:28 | 50.49407 | 20.61015 | 34947 ft | 447 kts | 1° |
| 2026-05-04 20:29 | 50.55575 | 20.61656 | 34302 ft | 441 kts | 1° |
| 2026-05-04 20:29 | 50.58616 | 20.61971 | 33060 ft | 450 kts | 1° |
| 2026-05-04 20:29 | 50.61739 | 20.62294 | 31646 ft | 459 kts | 1° |
| 2026-05-04 20:30 | 50.64924 | 20.62626 | 30406 ft | 462 kts | 1° |
| 2026-05-04 20:30 | 50.68076 | 20.62959 | 29750 ft | 451 kts | 1° |
| 2026-05-04 20:30 | 50.71167 | 20.63287 | 29027 ft | 443 kts | 1° |
| 2026-05-04 20:30 | 50.74179 | 20.63604 | 28192 ft | 439 kts | 1° |
| 2026-05-04 20:31 | 50.77210 | 20.63925 | 27450 ft | 432 kts | 1° |
| 2026-05-04 20:31 | 50.80134 | 20.64235 | 26921 ft | 421 kts | 1° |
| 2026-05-04 20:31 | 50.83011 | 20.64540 | 26418 ft | 411 kts | 1° |
| 2026-05-04 20:31 | 50.85835 | 20.64837 | 25943 ft | 403 kts | 1° |
| 2026-05-04 20:32 | 50.88613 | 20.65130 | 25477 ft | 401 kts | 2° |
| 2026-05-04 20:32 | 50.91359 | 20.65431 | 25020 ft | 398 kts | 2° |
| 2026-05-04 20:32 | 50.94112 | 20.65733 | 24568 ft | 396 kts | 2° |
| 2026-05-04 20:32 | 50.96829 | 20.66028 | 24123 ft | 393 kts | 2° |
| 2026-05-04 20:33 | 50.99553 | 20.66320 | 23677 ft | 390 kts | 2° |
| 2026-05-04 20:33 | 51.02213 | 20.66605 | 23241 ft | 388 kts | 2° |
| 2026-05-04 20:33 | 51.04905 | 20.66893 | 22795 ft | 385 kts | 2° |
| 2026-05-04 20:33 | 51.07572 | 20.67177 | 22356 ft | 383 kts | 2° |
| 2026-05-04 20:34 | 51.10200 | 20.67457 | 21920 ft | 381 kts | 1° |
| 2026-05-04 20:34 | 51.12838 | 20.67736 | 21486 ft | 379 kts | 1° |
| 2026-05-04 20:34 | 51.15455 | 20.68013 | 21055 ft | 377 kts | 1° |
| 2026-05-04 20:34 | 51.18039 | 20.68287 | 20632 ft | 375 kts | 1° |
| 2026-05-04 20:35 | 51.20616 | 20.68561 | 20209 ft | 373 kts | 1° |
| 2026-05-04 20:35 | 51.23198 | 20.68837 | 19785 ft | 372 kts | 1° |
| 2026-05-04 20:35 | 51.25751 | 20.69125 | 19366 ft | 370 kts | 3° |
| 2026-05-04 20:35 | 51.28296 | 20.69691 | 19024 ft | 374 kts | 9° |
| 2026-05-04 20:36 | 51.30848 | 20.70684 | 18958 ft | 379 kts | 14° |
| 2026-05-04 20:36 | 51.33368 | 20.71971 | 18950 ft | 380 kts | 16° |
| 2026-05-04 20:36 | 51.35837 | 20.73306 | 18946 ft | 380 kts | 17° |
| 2026-05-04 20:36 | 51.38359 | 20.74678 | 18943 ft | 380 kts | 17° |
| 2026-05-04 20:37 | 51.40814 | 20.76009 | 18777 ft | 375 kts | 16° |
| 2026-05-04 20:37 | 51.43294 | 20.77347 | 18173 ft | 378 kts | 16° |
| 2026-05-04 20:37 | 51.45768 | 20.78672 | 17548 ft | 380 kts | 16° |
| 2026-05-04 20:37 | 51.48262 | 20.80012 | 17056 ft | 378 kts | 16° |
| 2026-05-04 20:38 | 51.50748 | 20.81354 | 16605 ft | 375 kts | 16° |
| 2026-05-04 20:38 | 51.53198 | 20.82678 | 16150 ft | 373 kts | 16° |
| 2026-05-04 20:38 | 51.55651 | 20.84055 | 15687 ft | 371 kts | 19° |
| 2026-05-04 20:38 | 51.57938 | 20.85657 | 15230 ft | 358 kts | 22° |
| 2026-05-04 20:39 | 51.60159 | 20.87329 | 14708 ft | 345 kts | 22° |
| 2026-05-04 20:39 | 51.62277 | 20.88920 | 14081 ft | 338 kts | 22° |
| 2026-05-04 20:39 | 51.64396 | 20.90487 | 13437 ft | 331 kts | 21° |
| 2026-05-04 20:39 | 51.66468 | 20.91999 | 12811 ft | 325 kts | 21° |
| 2026-05-04 20:40 | 51.68503 | 20.93471 | 12144 ft | 321 kts | 21° |
| 2026-05-04 20:40 | 51.70511 | 20.94918 | 11474 ft | 317 kts | 21° |
| 2026-05-04 20:40 | 51.72510 | 20.96358 | 10814 ft | 313 kts | 21° |
| 2026-05-04 20:40 | 51.74458 | 20.97761 | 10170 ft | 310 kts | 20° |
| 2026-05-04 20:41 | 51.76419 | 20.99175 | 9520 ft | 307 kts | 20° |
| 2026-05-04 20:41 | 51.78348 | 21.00564 | 8890 ft | 303 kts | 21° |
| 2026-05-04 20:41 | 51.80252 | 21.01937 | 8278 ft | 299 kts | 21° |
| 2026-05-04 20:41 | 51.82106 | 21.03279 | 7679 ft | 295 kts | 21° |
| 2026-05-04 20:42 | 51.83952 | 21.04615 | 7080 ft | 291 kts | 21° |
| 2026-05-04 20:42 | 51.85796 | 21.05954 | 6477 ft | 287 kts | 22° |
| 2026-05-04 20:42 | 51.87418 | 21.07741 | 5842 ft | 287 kts | 49° |
| 2026-05-04 20:42 | 51.88463 | 21.10415 | 5384 ft | 281 kts | 63° |
| 2026-05-04 20:43 | 51.89342 | 21.13217 | 5029 ft | 280 kts | 64° |
| 2026-05-04 20:43 | 51.90296 | 21.15951 | 4718 ft | 278 kts | 50° |
| 2026-05-04 20:43 | 51.91854 | 21.17725 | 4421 ft | 269 kts | 13° |
| 2026-05-04 20:43 | 51.93636 | 21.17740 | 4187 ft | 252 kts | 336° |
| 2026-05-04 20:44 | 51.95091 | 21.16416 | 3974 ft | 238 kts | 319° |
| 2026-05-04 20:44 | 51.96394 | 21.14848 | 3832 ft | 229 kts | 319° |
| 2026-05-04 20:44 | 51.97691 | 21.13411 | 3692 ft | 220 kts | 322° |
| 2026-05-04 20:44 | 51.98940 | 21.12186 | 3621 ft | 204 kts | 324° |
| 2026-05-04 20:45 | 52.00140 | 21.11093 | 3478 ft | 194 kts | 325° |
| 2026-05-04 20:45 | 52.01321 | 21.10049 | 3165 ft | 192 kts | 326° |
| 2026-05-04 20:45 | 52.02482 | 21.09034 | 2992 ft | 190 kts | 326° |
| 2026-05-04 20:45 | 52.03644 | 21.08019 | 2933 ft | 191 kts | 326° |
| 2026-05-04 20:46 | 52.04812 | 21.07000 | 2717 ft | 190 kts | 326° |
| 2026-05-04 20:46 | 52.05967 | 21.05993 | 2464 ft | 189 kts | 326° |
| 2026-05-04 20:46 | 52.07131 | 21.04977 | 2211 ft | 188 kts | 326° |
| 2026-05-04 20:46 | 52.08264 | 21.03989 | 1964 ft | 187 kts | 326° |
| 2026-05-04 20:47 | 52.09405 | 21.02992 | 1722 ft | 186 kts | 326° |
| 2026-05-04 20:47 | 52.10522 | 21.02020 | 1462 ft | 175 kts | 326° |
| 2026-05-04 20:47 | 52.11330 | 21.01325 | 1275 ft | 165 kts | 325° |
| 2026-05-04 20:47 | 52.12295 | 21.00479 | 1074 ft | 164 kts | 325° |
| 2026-05-04 20:48 | 52.13295 | 20.99599 | 859 ft | 163 kts | 325° |
| 2026-05-04 20:48 | 52.14290 | 20.98725 | 646 ft | 163 kts | 325° |
| 2026-05-04 20:48 | 52.15313 | 20.97816 | 437 ft | 167 kts | 326° |
| 2026-05-04 20:48 | 52.16223 | 20.97010 | 338 ft | 143 kts | 325° |
| 2026-05-04 20:49 | 52.16958 | 20.96308 | 334 ft | 97 kts | 340° |
| 2026-05-04 20:49 | 52.17440 | 20.96062 | 339 ft | 43 kts | 2° |
| 2026-05-04 20:49 | 52.17475 | 20.96064 | 339 ft | 0 kts | 1° |
| 2026-05-04 20:51 | 52.17480 | 20.96064 | 339 ft | 2 kts | 1° |
| 2026-05-04 20:51 | 52.17519 | 20.96065 | 339 ft | 8 kts | 4° |
| 2026-05-04 20:51 | 52.17582 | 20.96091 | 338 ft | 7 kts | 22° |
| 2026-05-04 20:51 | 52.17649 | 20.96143 | 337 ft | 13 kts | 30° |
| 2026-05-04 20:52 | 52.17678 | 20.96251 | 335 ft | 14 kts | 169° |
| 2026-05-04 20:52 | 52.17564 | 20.96262 | 335 ft | 18 kts | 167° |
| 2026-05-04 20:52 | 52.17446 | 20.96350 | 334 ft | 19 kts | 152° |
| 2026-05-04 20:52 | 52.17326 | 20.96453 | 334 ft | 19 kts | 153° |
| 2026-05-04 20:53 | 52.17305 | 20.96470 | 334 ft | 0 kts | 153° |
| 2026-05-04 20:54 | 52.17300 | 20.96476 | 334 ft | 10 kts | 142° |
| 2026-05-04 20:54 | 52.17330 | 20.96609 | 333 ft | 15 kts | 40° |
| 2026-05-04 20:54 | 52.17366 | 20.96765 | 336 ft | 13 kts | 65° |
| 2026-05-04 20:55 | 52.17378 | 20.96800 | 337 ft | 0 kts | 62° |